Terminal Aerodrome Forecast
Issued by NWS Binghamton, NY

Home | Current Version | Previous Version | Text Only | Print | Product List | Glossary On
Versions: 1 2 3 4 5 6 7 8 9 10 11 12 13 14
000
FTUS41 KBGM 011730
TAFAVP
TAF
KAVP 011730Z 0118/0218 21018G30KT P6SM SCT025 BKN040
      TEMPO 0202/0206 3SM SHRA BR OVC025
     FM020600 24018G30KT P6SM BKN040
     FM021200 28015G29KT P6SM BKN040=

USA.gov is the U.S. government's official web portal to all federal, state and local government web resources and services.